Airfield :







YOU CAN JOIN US ON...

 
LOGIN :

Register | Disclaimer

   EN    FR    IT 

 









Legend :    VFR   Marginal VFR   IFR   Intensive IFR   Very Intensive IFR
Visi :
Ceiling :
>= 8 km
>= 3000ft
5 to 8 km
1000 to 3000 ft
1500m to 5 km
500 to 1000 ft
800 to 1500m
200 to 500 ft
< 800m
< 200 ft
Symbols :   Thunderstorms  Fog  Heavy snow  Heavy precipitations  Wind > 20 kt






- Airport Elevation : 285 ft
- IATA code : ALB


KALB - Albany International

CURRENT METAR :
  • 141551Z 17008KT 10SM BKN090 BKN120 OVC260 M02/M10 A3038 RMK AO2 SLP291 VIRGA SW-N T10221100

EXPIRED METARs :
  • 141351Z 17009KT 10SM FEW090 BKN110 OVC260 M03/M12 A3040 RMK AO2 SLP298 VIRGA E-S-W T10331122

TAF KALB
Valid from the 14 at 12:00 until the 15 at 12:00 UTC


141121Z 1412/1512 18004KT P6SM BKN100
FM141600 19010KT P6SM SCT050 OVC080
FM142100 19009KT P6SM BKN100
FM150000 17004KT P6SM BKN100
FM150600 18005KT P6SM SCT050 BKN080



MET'MAP, your aeronautical weather chart ! - Copyright ORBIFLY December 2007 - Disclaimer

ORBIFLY MET'MAP TEAM :

Programming & Development : Alexandra Zaïnal
Concept & Development : Baudouin d'Aumeries
Co-Development & Prog : Marc-Olivier Méhu
Technical & hardware support : Manuel Goepfert

Contact : metmap@orbifly.com




SOURCES & CREDITS :

   NOAA